createdAt,value
2019-04-26T00:01:34.667Z,3.73
2019-04-26T00:04:06.240Z,3.60
2019-04-26T00:06:36.769Z,3.90
2019-04-26T00:09:29.451Z,3.93
2019-04-26T00:12:30.621Z,4.00
2019-04-26T00:15:18.928Z,3.77
2019-04-26T00:18:00.349Z,3.10
2019-04-26T00:20:31.390Z,3.00
2019-04-26T00:23:02.760Z,3.40
2019-04-26T00:25:33.071Z,2.90
2019-04-26T00:28:03.524Z,3.00
2019-04-26T00:30:33.879Z,2.93
2019-04-26T00:33:04.309Z,3.20
2019-04-26T00:35:46.911Z,3.50
2019-04-26T00:38:08.899Z,3.57
2019-04-26T00:40:46.266Z,4.30
2019-04-26T00:43:17.196Z,5.00
2019-04-26T00:45:57.221Z,3.90
2019-04-26T00:48:32.704Z,3.83
2019-04-26T00:51:05.033Z,4.10
2019-04-26T00:53:39.470Z,4.43
2019-04-26T00:56:20.057Z,4.10
2019-04-26T00:59:05.645Z,4.27
2019-04-26T01:01:41.686Z,4.47
2019-04-26T01:04:20.905Z,3.90
2019-04-26T01:06:54.010Z,4.20
2019-04-26T01:09:27.135Z,4.00
2019-04-26T01:11:57.554Z,4.00
2019-04-26T01:14:28.597Z,3.77
2019-04-26T01:17:02.273Z,3.60
2019-04-26T01:19:42.779Z,4.83
2019-04-26T01:22:21.406Z,4.50
2019-04-26T01:24:56.899Z,4.93
2019-04-26T01:27:30.719Z,4.27
2019-04-26T01:30:09.544Z,3.80
2019-04-26T01:32:43.927Z,3.80
2019-04-26T01:35:18.979Z,3.90
2019-04-26T01:37:55.225Z,3.60
2019-04-26T01:40:28.184Z,3.93
2019-04-26T01:43:22.646Z,3.97
2019-04-26T01:46:02.120Z,3.70
2019-04-26T01:48:48.318Z,4.20
2019-04-26T01:51:34.467Z,4.10
2019-04-26T01:54:04.822Z,3.73
2019-04-26T01:56:38.260Z,4.00
2019-04-26T01:59:13.412Z,4.10
2019-04-26T02:02:02.023Z,3.83
2019-04-26T02:04:35.037Z,3.77
2019-04-26T02:07:06.150Z,4.00
2019-04-26T02:09:36.780Z,4.23
2019-04-26T02:12:07.340Z,4.20
2019-04-26T02:14:37.910Z,4.47
2019-04-26T02:17:08.651Z,4.57
2019-04-26T02:19:39.171Z,4.27
2019-04-26T02:22:26.526Z,4.70
2019-04-26T02:24:57.141Z,4.60
2019-04-26T02:27:30.305Z,4.73
2019-04-26T02:30:02.943Z,3.90
2019-04-26T02:32:35.408Z,4.20
2019-04-26T02:35:05.987Z,4.53
2019-04-26T02:37:38.338Z,4.23
2019-04-26T02:40:15.405Z,4.20
2019-04-26T02:42:47.073Z,4.53
2019-04-26T02:45:55.552Z,4.40
2019-04-26T02:49:07.860Z,4.30
2019-04-26T02:51:46.294Z,4.30
2019-04-26T02:54:47.988Z,4.83
2019-04-26T02:57:43.363Z,4.10
2019-04-26T03:00:18.435Z,4.23
2019-04-26T03:03:01.959Z,4.37
2019-04-26T03:05:37.664Z,5.20
2019-04-26T03:08:17.163Z,5.00
2019-04-26T03:11:18.521Z,4.60
2019-04-26T03:13:58.186Z,4.90
2019-04-26T03:16:55.180Z,4.33
2019-04-26T03:19:54.849Z,5.10
2019-04-26T03:23:02.284Z,5.30
2019-04-26T03:25:51.979Z,5.57
2019-04-26T03:28:58.717Z,5.03
2019-04-26T03:31:54.526Z,4.67
2019-04-26T03:34:42.160Z,5.17
2019-04-26T03:37:50.306Z,4.60
2019-04-26T03:40:47.640Z,5.73
2019-04-26T03:43:46.331Z,5.30
2019-04-26T03:46:48.378Z,4.67
2019-04-26T03:49:54.752Z,5.17
2019-04-26T03:53:23.239Z,4.77
2019-04-26T03:57:08.786Z,5.10
2019-04-26T04:00:11.098Z,5.63
2019-04-26T04:03:39.255Z,5.27
2019-04-26T04:06:14.635Z,5.17
2019-04-26T04:08:55.999Z,6.37
2019-04-26T04:11:37.885Z,4.50
2019-04-26T04:14:26.148Z,4.80
2019-04-26T04:17:26.604Z,4.80
2019-04-26T04:21:08.537Z,4.30
2019-04-26T04:24:22.754Z,4.33
2019-04-26T04:27:23.447Z,4.40
2019-04-26T04:30:47.722Z,4.47
2019-04-26T04:34:13.187Z,3.60
2019-04-26T04:36:51.534Z,3.57
2019-04-26T04:39:53.688Z,3.40
2019-04-26T04:42:56.859Z,3.70
2019-04-26T04:46:19.158Z,2.93
2019-04-26T04:49:30.688Z,2.87
2019-04-26T04:52:44.991Z,3.73
2019-04-26T04:55:25.192Z,2.70
2019-04-26T04:58:22.824Z,2.90
2019-04-26T05:01:32.993Z,2.73
2019-04-26T05:04:35.656Z,3.40
2019-04-26T05:07:33.599Z,3.00
2019-04-26T05:10:36.974Z,2.90
2019-04-26T05:13:38.073Z,2.50
2019-04-26T05:16:50.503Z,2.97
2019-04-26T05:20:07.437Z,3.30
2019-04-26T05:23:41.603Z,3.47
2019-04-26T05:26:39.486Z,3.40
2019-04-26T05:30:17.612Z,3.03
2019-04-26T05:33:35.835Z,2.97
2019-04-26T05:37:16.088Z,3.00
2019-04-26T05:40:07.471Z,3.00
2019-04-26T05:43:40.319Z,2.83
2019-04-26T05:47:16.189Z,3.00
2019-04-26T05:51:02.210Z,3.03
2019-04-26T05:54:10.865Z,2.57
2019-04-26T05:57:00.980Z,3.23
2019-04-26T06:00:39.879Z,3.20
2019-04-26T06:03:40.345Z,3.30
2019-04-26T06:06:41.275Z,3.30
2019-04-26T06:10:19.884Z,3.53
2019-04-26T06:13:31.728Z,3.70
2019-04-26T06:16:37.575Z,3.67
2019-04-26T06:19:28.873Z,3.40
2019-04-26T06:22:26.321Z,3.50
2019-04-26T06:25:37.374Z,3.10
2019-04-26T06:28:37.820Z,3.63
2019-04-26T06:31:30.648Z,3.53
2019-04-26T06:34:15.797Z,3.13
2019-04-26T06:37:10.240Z,3.47
2019-04-26T06:40:18.643Z,3.50
2019-04-26T06:43:29.642Z,3.40
2019-04-26T06:46:52.848Z,3.20
2019-04-26T06:50:12.339Z,3.40
2019-04-26T06:53:32.666Z,4.13
2019-04-26T06:57:20.187Z,3.93
2019-04-26T07:00:27.413Z,3.33
2019-04-26T07:03:30.080Z,4.20
2019-04-26T07:06:04.554Z,3.87
2019-04-26T07:09:00.519Z,3.97
2019-04-26T07:12:30.182Z,3.60
2019-04-26T07:15:48.195Z,3.20
2019-04-26T07:19:13.305Z,4.03
2019-04-26T07:22:48.649Z,3.20
2019-04-26T07:26:11.217Z,2.87
2019-04-26T07:29:45.518Z,3.50
2019-04-26T07:33:08.353Z,3.27
2019-04-26T07:36:20.964Z,3.00
2019-04-26T07:39:34.468Z,3.30
2019-04-26T07:43:08.107Z,3.60
2019-04-26T07:46:32.736Z,3.60
2019-04-26T07:50:07.400Z,3.80
2019-04-26T07:54:07.010Z,4.87
2019-04-26T07:57:51.452Z,4.03
2019-04-26T08:00:44.615Z,4.17
2019-04-26T08:03:28.366Z,3.93
2019-04-26T08:06:25.051Z,3.93
2019-04-26T08:09:09.709Z,3.30
2019-04-26T08:11:51.941Z,3.60
2019-04-26T08:14:41.357Z,3.27
2019-04-26T08:17:40.972Z,3.70
2019-04-26T08:20:31.976Z,3.50
2019-04-26T08:23:38.541Z,2.90
2019-04-26T08:26:07.741Z,3.40
2019-04-26T08:28:43.316Z,3.67
2019-04-26T08:31:23.177Z,3.33
2019-04-26T08:34:00.034Z,3.80
2019-04-26T08:36:36.949Z,3.53
2019-04-26T08:39:23.391Z,3.47
2019-04-26T08:41:57.331Z,3.20
2019-04-26T08:44:46.131Z,3.37
2019-04-26T08:47:36.431Z,3.40
2019-04-26T08:50:19.843Z,2.77
2019-04-26T08:52:52.538Z,2.77
2019-04-26T08:55:25.881Z,2.90
2019-04-26T08:58:05.128Z,3.03
2019-04-26T09:01:11.058Z,2.50
2019-04-26T09:03:58.669Z,3.10
2019-04-26T09:06:48.540Z,2.73
2019-04-26T09:09:26.068Z,2.50
2019-04-26T09:12:00.202Z,2.60
2019-04-26T09:14:36.024Z,2.43
2019-04-26T09:17:08.443Z,2.30
2019-04-26T09:19:38.785Z,2.57
2019-04-26T09:22:22.583Z,2.53
2019-04-26T09:25:04.640Z,2.60
2019-04-26T09:27:41.960Z,2.47
2019-04-26T09:30:17.280Z,2.67
2019-04-26T09:32:58.278Z,2.20
2019-04-26T09:35:27.352Z,2.10
2019-04-26T09:37:57.772Z,2.53
2019-04-26T09:40:28.111Z,2.23
2019-04-26T09:43:10.669Z,5.30
2019-04-26T09:46:06.590Z,2.30
2019-04-26T09:48:45.523Z,2.70
2019-04-26T09:51:16.053Z,2.20
2019-04-26T09:53:46.396Z,2.60
2019-04-26T09:56:16.737Z,2.10
2019-04-26T09:58:47.283Z,1.90
2019-04-26T10:01:19.641Z,2.40
2019-04-26T10:03:50.232Z,2.10
2019-04-26T10:06:20.613Z,2.63
2019-04-26T10:08:52.457Z,2.30
2019-04-26T10:11:25.080Z,3.90
2019-04-26T10:14:14.404Z,2.40
2019-04-26T10:17:03.358Z,2.07
2019-04-26T10:19:45.448Z,2.30
2019-04-26T10:22:15.848Z,2.10
2019-04-26T10:24:46.181Z,2.17
2019-04-26T10:27:18.337Z,2.50
2019-04-26T10:29:48.601Z,2.50
2019-04-26T10:32:21.588Z,2.40
2019-04-26T10:34:51.418Z,2.60
2019-04-26T10:37:22.162Z,2.43
2019-04-26T10:39:52.522Z,2.50
2019-04-26T10:42:24.688Z,2.50
2019-04-26T10:44:55.120Z,2.70
2019-04-26T10:47:25.841Z,2.27
2019-04-26T10:50:02.630Z,2.50
2019-04-26T10:52:54.076Z,2.80
2019-04-26T10:55:41.243Z,2.23
2019-04-26T10:58:36.233Z,2.80
2019-04-26T11:01:13.704Z,2.30
2019-04-26T11:03:44.173Z,2.37
2019-04-26T11:06:27.511Z,2.40
2019-04-26T11:09:26.566Z,2.70
2019-04-26T11:12:09.579Z,2.80
2019-04-26T11:15:00.561Z,2.53
2019-04-26T11:17:55.908Z,2.70
2019-04-26T11:20:53.527Z,2.40
2019-04-26T11:23:26.788Z,2.20
2019-04-26T11:25:57.857Z,3.70
2019-04-26T11:28:29.380Z,2.93
2019-04-26T11:31:00.094Z,3.30
2019-04-26T11:33:30.869Z,2.70
2019-04-26T11:36:07.390Z,2.60
2019-04-26T11:38:36.800Z,2.73
2019-04-26T11:41:08.893Z,2.60
2019-04-26T11:43:39.621Z,3.03
2019-04-26T11:46:10.091Z,2.70
2019-04-26T11:48:40.549Z,2.30
2019-04-26T11:51:10.927Z,2.80
2019-04-26T11:53:44.724Z,2.60
2019-04-26T11:56:13.339Z,2.90
2019-04-26T11:58:43.720Z,2.80
2019-04-26T12:01:15.832Z,3.20
2019-04-26T12:04:03.970Z,3.20
2019-04-26T12:06:41.126Z,2.97
2019-04-26T12:09:16.701Z,2.90
2019-04-26T12:11:50.932Z,3.10
2019-04-26T12:14:20.671Z,2.60
2019-04-26T12:16:58.865Z,2.80
2019-04-26T12:19:24.999Z,2.83
2019-04-26T12:21:56.805Z,2.63
2019-04-26T12:24:29.590Z,3.10
2019-04-26T12:27:04.082Z,3.00
2019-04-26T12:29:35.512Z,3.13
2019-04-26T12:32:06.044Z,2.90
2019-04-26T12:34:36.442Z,3.37
2019-04-26T12:37:06.798Z,2.87
2019-04-26T12:39:38.326Z,3.27
2019-04-26T12:42:12.363Z,3.30
2019-04-26T12:44:58.561Z,3.80
2019-04-26T12:47:40.929Z,3.30
2019-04-26T12:50:11.637Z,3.20
2019-04-26T12:52:42.203Z,3.70
2019-04-26T12:55:19.988Z,3.50
2019-04-26T12:57:52.467Z,4.93
2019-04-26T13:00:27.058Z,3.63
2019-04-26T13:03:01.079Z,3.50
2019-04-26T13:05:33.858Z,3.87
2019-04-26T13:08:04.290Z,3.77
2019-04-26T13:10:54.690Z,4.17
2019-04-26T13:13:41.813Z,4.37
2019-04-26T13:16:40.228Z,3.87
2019-04-26T13:19:11.455Z,3.60
2019-04-26T13:21:55.308Z,3.50
2019-04-26T13:24:25.963Z,4.10
2019-04-26T13:27:06.104Z,4.40
2019-04-26T13:29:35.773Z,4.33
2019-04-26T13:32:09.999Z,5.00
2019-04-26T13:34:52.431Z,5.37
2019-04-26T13:37:27.036Z,5.23
2019-04-26T13:39:59.955Z,5.00
2019-04-26T13:42:30.342Z,5.50
2019-04-26T13:45:25.322Z,6.33
2019-04-26T13:48:29.542Z,8.17
2019-04-26T13:51:06.234Z,7.50
2019-04-26T13:53:36.588Z,8.30
2019-04-26T13:56:07.136Z,9.37
2019-04-26T13:58:37.748Z,9.43
2019-04-26T14:01:09.624Z,7.80
2019-04-26T14:03:40.114Z,7.27
2019-04-26T14:06:10.650Z,7.33
2019-04-26T14:08:41.047Z,7.53
2019-04-26T14:11:11.821Z,7.13
2019-04-26T14:13:42.754Z,7.30
2019-04-26T14:16:13.130Z,7.33
2019-04-26T14:18:45.316Z,6.37
2019-04-26T14:21:16.315Z,6.63
2019-04-26T14:24:11.997Z,7.30
2019-04-26T14:26:45.869Z,7.50
2019-04-26T14:29:28.561Z,7.60
2019-04-26T14:31:59.808Z,7.10
2019-04-26T14:34:36.219Z,7.60
2019-04-26T14:37:06.640Z,7.17
2019-04-26T14:42:49.819Z,7.80
2019-04-26T14:45:24.284Z,7.80
2019-04-26T14:47:55.309Z,7.43
2019-04-26T14:50:28.172Z,7.53
2019-04-26T14:53:02.361Z,8.10
2019-04-26T14:55:31.773Z,8.73
2019-04-26T14:58:02.437Z,8.13
2019-04-26T15:00:36.332Z,8.33
2019-04-26T15:03:17.338Z,8.40
2019-04-26T15:06:05.713Z,8.93
2019-04-26T15:08:36.295Z,8.60
2019-04-26T15:11:07.923Z,9.40
2019-04-26T15:13:40.506Z,8.53
2019-04-26T15:16:14.058Z,8.43
2019-04-26T15:18:49.858Z,9.97
2019-04-26T15:21:20.194Z,10.20
2019-04-26T15:23:50.771Z,10.00
2019-04-26T15:26:29.598Z,10.47
2019-04-26T15:28:55.266Z,11.13
2019-04-26T15:31:27.389Z,10.13
2019-04-26T15:33:57.948Z,10.60
2019-04-26T15:36:28.440Z,9.60
2019-04-26T15:39:02.620Z,10.13
2019-04-26T15:41:47.028Z,10.70
2019-04-26T15:44:36.426Z,10.13
2019-04-26T15:47:13.114Z,10.10
2019-04-26T15:49:50.760Z,9.87
2019-04-26T15:52:21.251Z,10.70
2019-04-26T15:54:54.392Z,10.67
2019-04-26T15:57:31.135Z,10.63
2019-04-26T16:00:00.047Z,12.23
2019-04-26T16:02:32.016Z,11.60
2019-04-26T16:05:34.845Z,10.57
2019-04-26T16:08:53.342Z,10.27
2019-04-26T16:11:23.817Z,10.90
2019-04-26T16:13:55.584Z,11.47
2019-04-26T16:16:29.236Z,10.80
2019-04-26T16:18:58.651Z,10.57
2019-04-26T16:21:28.980Z,9.60
2019-04-26T16:23:59.311Z,10.10
2019-04-26T16:26:32.954Z,10.33
2019-04-26T16:29:24.132Z,10.67
2019-04-26T16:32:12.567Z,10.37
2019-04-26T16:34:47.628Z,10.33
2019-04-26T16:37:21.944Z,10.23
2019-04-26T16:39:48.803Z,10.33
2019-04-26T16:42:19.566Z,10.47
2019-04-26T16:44:49.953Z,9.90
2019-04-26T16:47:20.290Z,9.37
2019-04-26T16:49:52.323Z,8.93
2019-04-26T16:52:23.745Z,8.70
2019-04-26T16:55:02.478Z,8.83
2019-04-26T16:57:27.015Z,8.30
2019-04-26T17:00:00.287Z,7.97
2019-04-26T17:02:34.223Z,7.60
2019-04-26T17:05:04.636Z,8.00
2019-04-26T17:07:39.147Z,7.50
2019-04-26T17:10:07.142Z,6.10
2019-04-26T17:12:37.936Z,6.47
2019-04-26T17:15:09.524Z,6.43
2019-04-26T17:17:41.254Z,6.43
2019-04-26T17:20:12.399Z,6.63
2019-04-26T17:23:05.226Z,6.27
2019-04-26T17:25:55.227Z,5.33
2019-04-26T17:28:26.562Z,5.63
2019-04-26T17:30:58.281Z,5.77
2019-04-26T17:33:29.213Z,5.70
2019-04-26T17:35:59.770Z,5.80
2019-04-26T17:38:31.223Z,4.87
2019-04-26T17:41:02.018Z,5.40
2019-04-26T17:43:32.410Z,6.20
2019-04-26T17:46:02.853Z,5.70
2019-04-26T17:48:33.691Z,5.27
2019-04-26T17:51:04.545Z,4.73
2019-04-26T17:53:34.903Z,4.27
2019-04-26T17:56:05.334Z,3.73
2019-04-26T17:58:49.835Z,3.93
2019-04-26T18:01:07.928Z,3.87
2019-04-26T18:03:38.396Z,3.60
2019-04-26T18:06:09.489Z,3.40
2019-04-26T18:08:51.986Z,3.80
2019-04-26T18:11:19.750Z,2.50
2019-04-26T18:13:47.186Z,2.47
2019-04-26T18:16:21.996Z,2.27
2019-04-26T18:19:12.816Z,2.17
2019-04-26T18:22:05.698Z,2.00
2019-04-26T18:24:36.435Z,1.90
2019-04-26T18:27:06.854Z,2.07
2019-04-26T18:29:37.203Z,1.90
2019-04-26T18:32:07.630Z,1.80
2019-04-26T18:34:40.555Z,3.23
2019-04-26T18:37:13.094Z,2.20
2019-04-26T18:39:43.470Z,3.73
2019-04-26T18:42:14.020Z,4.80
2019-04-26T18:44:48.021Z,5.30
2019-04-26T18:47:27.939Z,5.40
2019-04-26T18:50:03.544Z,6.50
2019-04-26T18:52:38.655Z,6.97
2019-04-26T18:55:21.406Z,7.40
2019-04-26T18:57:55.089Z,5.97
2019-04-26T19:00:31.400Z,6.80
2019-04-26T19:03:01.898Z,5.33
2019-04-26T19:05:33.740Z,6.93
2019-04-26T19:08:05.134Z,6.20
2019-04-26T19:10:36.510Z,7.10
2019-04-26T19:13:44.454Z,6.33
2019-04-26T19:16:56.491Z,6.10
2019-04-26T19:19:51.652Z,7.87
2019-04-26T19:22:22.662Z,5.83
2019-04-26T19:25:05.455Z,7.80
2019-04-26T19:28:08.773Z,5.80
2019-04-26T19:30:49.327Z,7.73
2019-04-26T19:33:31.387Z,5.13
2019-04-26T19:36:07.676Z,4.70
2019-04-26T19:38:45.220Z,5.07
2019-04-26T19:41:13.128Z,3.43
2019-04-26T19:43:46.203Z,4.20
2019-04-26T19:46:35.656Z,2.70
2019-04-26T19:49:37.214Z,3.73
2019-04-26T19:52:39.490Z,3.10
2019-04-26T19:55:31.746Z,2.20
2019-04-26T19:58:05.055Z,3.30
2019-04-26T20:00:43.398Z,2.80
2019-04-26T20:03:22.328Z,3.33
2019-04-26T20:05:59.523Z,2.40
2019-04-26T20:08:29.956Z,3.20
2019-04-26T20:11:01.350Z,2.27
2019-04-26T20:13:36.456Z,3.80
2019-04-26T20:16:07.444Z,2.97
2019-04-26T20:18:42.094Z,3.90
2019-04-26T20:21:15.641Z,3.37
2019-04-26T20:23:52.157Z,4.33
2019-04-26T20:26:22.625Z,3.50
2019-04-26T20:28:55.115Z,3.67
2019-04-26T20:31:56.389Z,3.13
2019-04-26T20:34:27.824Z,4.63
2019-04-26T20:37:01.400Z,2.73
2019-04-26T20:39:34.628Z,2.90
2019-04-26T20:42:05.122Z,4.87
2019-04-26T20:44:50.395Z,3.50
2019-04-26T20:47:11.994Z,3.83
2019-04-26T20:49:48.138Z,4.97
2019-04-26T20:52:16.538Z,3.10
2019-04-26T20:54:51.120Z,3.30
2019-04-26T20:57:21.931Z,3.87
2019-04-26T21:00:01.608Z,3.17
2019-04-26T21:02:25.000Z,3.37
2019-04-26T21:04:55.416Z,3.00
2019-04-26T21:07:25.852Z,3.30
2019-04-26T21:09:56.205Z,4.30
2019-04-26T21:12:27.084Z,3.27
2019-04-26T21:14:57.443Z,3.23
2019-04-26T21:17:27.997Z,4.00
2019-04-26T21:19:58.746Z,4.27
2019-04-26T21:22:29.109Z,3.70
2019-04-26T21:25:04.931Z,4.17
2019-04-26T21:28:06.636Z,4.10
2019-04-26T21:30:48.506Z,4.60
2019-04-26T21:33:40.973Z,4.33
2019-04-26T21:36:30.516Z,6.13
2019-04-26T21:39:13.672Z,5.23
2019-04-26T21:41:48.360Z,4.70
2019-04-26T21:44:19.192Z,7.03
2019-04-26T21:46:56.196Z,5.50
2019-04-26T21:49:24.166Z,6.17
2019-04-26T21:51:54.460Z,5.80
2019-04-26T21:54:25.386Z,5.40
2019-04-26T21:56:56.397Z,7.60
2019-04-26T21:59:26.822Z,4.93
2019-04-26T22:01:59.479Z,4.83
2019-04-26T22:04:34.187Z,3.97
2019-04-26T22:07:07.817Z,3.83
2019-04-26T22:10:00.289Z,3.90
2019-04-26T22:12:32.515Z,3.97
2019-04-26T22:15:23.521Z,5.50
2019-04-26T22:18:00.127Z,4.00
2019-04-26T22:20:37.607Z,3.97
2019-04-26T22:23:21.494Z,4.23
2019-04-26T22:25:54.317Z,3.73
2019-04-26T22:28:27.005Z,3.93
2019-04-26T22:30:59.272Z,4.13
2019-04-26T22:33:34.245Z,3.87
2019-04-26T22:36:04.759Z,5.67
2019-04-26T22:38:35.034Z,4.60
2019-04-26T22:41:05.345Z,4.13
2019-04-26T22:44:09.848Z,4.43
2019-04-26T22:46:49.420Z,6.47
2019-04-26T22:49:19.929Z,5.37
2019-04-26T22:51:50.200Z,5.30
2019-04-26T22:54:20.921Z,6.83
2019-04-26T22:56:51.150Z,5.53
2019-04-26T22:59:22.990Z,5.93
2019-04-26T23:01:53.751Z,6.33
2019-04-26T23:04:26.465Z,7.60
2019-04-26T23:06:56.666Z,9.20
2019-04-26T23:09:27.359Z,7.30
2019-04-26T23:12:04.578Z,9.73
2019-04-26T23:14:52.182Z,7.10
2019-04-26T23:17:40.574Z,8.30
2019-04-26T23:20:37.780Z,7.93
2019-04-26T23:23:09.161Z,7.47
2019-04-26T23:25:39.454Z,9.60
2019-04-26T23:28:09.731Z,7.97
2019-04-26T23:30:40.221Z,7.43
2019-04-26T23:33:13.455Z,7.37
2019-04-26T23:35:47.540Z,7.10
2019-04-26T23:38:17.651Z,7.03
2019-04-26T23:40:48.026Z,6.80
2019-04-26T23:43:24.107Z,6.67
2019-04-26T23:45:50.766Z,7.97
2019-04-26T23:48:21.393Z,7.13
2019-04-26T23:50:53.919Z,6.10
2019-04-26T23:53:24.602Z,6.63
2019-04-26T23:55:57.550Z,7.63
2019-04-26T23:58:27.932Z,6.57
